MSC Carolina — 3ECV5 — position and weather

sailwx.info

Track history (hours):
 
Tides and Currents Weather Stations Pressure Air Temp Water Temp Dewpoint Dewpoint Depression Visibility Wind Speed Wind Dir Waves Ship Positions

MSC Carolina

Last reported at 2014-Aug-01 01:33 UTC. Time now 2014-Aug-01 01:53 UTC.
Position N 43°39' E 009°06'.

Length 275 m; draft 12.6 m.

Type: Ship (hazmat cat B). MMSI: 371475000.

Date/timePositionNaut miles runAvg speedWind from/ knotsBaromVisibWave heightAir tempDewpointWater temp
2014-Aug-01 01:33N 43°39' E 009°06'1919.2
2014-Aug-01 00:33N 43°50' E 009°29'1919.3
2014-Jul-31 23:33N 44°00' E 009°51'6 6.0
2014-Jul-31 22:31N 44°06' E 009°51'0 0.0
2014-Jul-31 21:31N 44°06' E 009°51'0 0.0
2014-Jul-31 20:31N 44°06' E 009°51'0 0.0
2014-Jul-31 19:31N 44°06' E 009°51'0 0.0
2014-Jul-31 18:31N 44°06' E 009°51'0 0.0
2014-Jul-31 17:28N 44°06' E 009°51'0 0.0
2014-Jul-31 16:31N 44°06' E 009°51'0 0.0
2014-Jul-31 15:31N 44°06' E 009°51'0 0.0
2014-Jul-31 14:31N 44°06' E 009°51'0 0.0
2014-Jul-31 13:31N 44°06' E 009°51'0 0.0
2014-Jul-31 12:31N 44°06' E 009°51'0 0.0
2014-Jul-31 11:31N 44°06' E 009°51'0 0.0
2014-Jul-31 10:31N 44°06' E 009°51'0 0.0
2014-Jul-31 09:31N 44°06' E 009°51'0 0.0
2014-Jul-31 08:31N 44°06' E 009°51'0 0.0
2014-Jul-31 07:31N 44°06' E 009°51'0 0.0
2014-Jul-31 06:31N 44°06' E 009°51'0 0.0
2014-Jul-31 05:31N 44°06' E 009°51'0 0.0
2014-Jul-31 04:31N 44°06' E 009°51'0 0.0
2014-Jul-31 03:31N 44°06' E 009°51'0 0.0
2014-Jul-31 02:31N 44°06' E 009°51'0 0.0
2014-Jul-31 01:31N 44°06' E 009°51'0 0.0
2014-Jul-31 00:31N 44°06' E 009°51'0 0.3
2014-Jul-30 23:33N 44°06' E 009°51'4 4.1
2014-Jul-30 22:33N 44°03' E 009°53'4 4.1
2014-Jul-30 21:34N 44°00' E 009°58'1 0.7
2014-Jul-30 20:34N 43°60' E 009°58'1 0.9
2014-Jul-30 19:33N 44°00' E 009°57'1 0.8
2014-Jul-30 18:33N 44°00' E 009°56'9 9.4
2014-Jul-30 17:33N 43°52' E 009°50'1111.3
2014-Jul-30 16:33N 43°41' E 009°46'1211.8
2014-Jul-30 15:34N 43°30' E 009°42'1312.9
2014-Jul-30 14:33N 43°17' E 009°41'1514.6
2014-Jul-30 13:33N 43°02' E 009°41'3415.0
2014-Jul-30 11:17N 42°38' E 010°14'1215.5
2014-Jul-30 10:32N 42°30' E 010°26'16518.3
2014-Jul-30 01:31N 40°44' E 013°15'1818.7
2014-Jul-30 00:33N 40°41' E 013°38'1918.6
2014-Jul-29 23:34N 40°38' E 014°02'1716.5
2014-Jul-29 22:33N 40°50' E 014°18'1 0.4
2014-Jul-29 20:29N 40°50' E 014°17'0 0.0
2014-Jul-29 19:29N 40°50' E 014°17'0 0.0
2014-Jul-29 18:32N 40°50' E 014°17'0 0.0
2014-Jul-29 17:32N 40°50' E 014°17'0 0.0
2014-Jul-29 16:32N 40°50' E 014°17'0 0.0
2014-Jul-29 15:32N 40°50' E 014°17'0 0.0
2014-Jul-29 14:28N 40°50' E 014°17'0 0.0
2014-Jul-29 13:31N 40°50' E 014°17'0 0.0
2014-Jul-29 11:25N 40°50' E 014°17'0 0.0
2014-Jul-29 03:04N 40°50' E 014°17'1 0.0
2014-Jul-28 06:30N 40°50' E 014°17'8 8.3
2014-Jul-28 05:33N 40°43' E 014°12'9 9.5
2014-Jul-28 04:34N 40°35' E 014°05'10 9.8
2014-Jul-28 03:34N 40°26' E 014°10'15715.3
2014-Jul-27 17:17N 38°03' E 015°36'37817.9
2014-Jul-26 20:11N 35°49' E 022°58'1418.0
2014-Jul-26 19:22N 35°47' E 023°15'1617.8
2014-Jul-26 18:27N 35°46' E 023°35'1820.2
2014-Jul-26 17:33N 35°44' E 023°58'2120.9
2014-Jul-26 16:33N 35°41' E 024°23'2421.0
2014-Jul-26 15:25N 35°37' E 024°52'1720.2
2014-Jul-26 14:33N 35°35' E 025°13'2020.2
2014-Jul-26 13:33N 35°33' E 025°38'  
2014-Jul-24 06:21N 34°48' E 034°14'1821.0
2014-Jul-24 05:29N 34°36' E 033°57'2021.5
2014-Jul-24 04:33N 34°23' E 033°38'2221.4
2014-Jul-24 03:33N 34°10' E 033°18'2121.3
2014-Jul-24 02:33N 33°56' E 032°59'2121.0
2014-Jul-24 01:33N 33°42' E 032°40'2120.9
2014-Jul-24 00:33N 33°29' E 032°20'2421.0
2014-Jul-23 23:24N 33°13' E 031°58'1821.3
2014-Jul-23 22:33N 33°02' E 031°41'2121.5
2014-Jul-23 21:33N 32°48' E 031°22'2221.5
2014-Jul-23 20:33N 32°34' E 031°02'2121.3
2014-Jul-23 19:33N 32°20' E 030°43'2221.5
2014-Jul-23 18:32N 32°06' E 030°23'2121.7
2014-Jul-23 17:33N 31°52' E 030°04'2120.8
2014-Jul-23 16:33N 31°35' E 029°51'2120.8
2014-Jul-23 15:33N 31°14' E 029°47'6 0.8
2014-Jul-23 08:16N 31°09' E 029°48'0 0.0
2014-Jul-23 07:33N 31°09' E 029°48'0 0.0
2014-Jul-23 06:09N 31°09' E 029°48'0 0.0
2014-Jul-23 03:33N 31°09' E 029°48'0 0.0
2014-Jul-23 02:33N 31°09' E 029°48'0 0.0
2014-Jul-22 21:15N 31°09' E 029°48'0 0.0
2014-Jul-22 20:21N 31°09' E 029°48'0 0.0
2014-Jul-22 18:24N 31°09' E 029°48'0 0.0
2014-Jul-22 17:33N 31°09' E 029°48'0 0.0
2014-Jul-22 16:30N 31°09' E 029°48'0 0.0
2014-Jul-22 13:30N 31°09' E 029°48'  
Track history (hours):
 
Tides and Currents Weather Stations Pressure Air Temp Water Temp Dewpoint Dewpoint Depression Visibility Wind Speed Wind Dir Waves Ship Positions

MSC Carolina

Last reported at 2014-Aug-01 01:33 UTC. Time now 2014-Aug-01 01:53 UTC.
Position N 43°39' E 009°06'.

Length 275 m; draft 12.6 m.

Type: Ship (hazmat cat B). MMSI: 371475000.

Date/timePositionNaut miles runAvg speedWind from/ knotsBaromVisibWave heightAir tempDewpointWater temp
2014-Aug-01 01:33N 43°39' E 009°06'1919.2
2014-Aug-01 00:33N 43°50' E 009°29'1919.3
2014-Jul-31 23:33N 44°00' E 009°51'6 6.0
2014-Jul-31 22:31N 44°06' E 009°51'0 0.0
2014-Jul-31 21:31N 44°06' E 009°51'0 0.0
2014-Jul-31 20:31N 44°06' E 009°51'0 0.0
2014-Jul-31 19:31N 44°06' E 009°51'0 0.0
2014-Jul-31 18:31N 44°06' E 009°51'0 0.0
2014-Jul-31 17:28N 44°06' E 009°51'0 0.0
2014-Jul-31 16:31N 44°06' E 009°51'0 0.0
2014-Jul-31 15:31N 44°06' E 009°51'0 0.0
2014-Jul-31 14:31N 44°06' E 009°51'0 0.0
2014-Jul-31 13:31N 44°06' E 009°51'0 0.0
2014-Jul-31 12:31N 44°06' E 009°51'0 0.0
2014-Jul-31 11:31N 44°06' E 009°51'0 0.0
2014-Jul-31 10:31N 44°06' E 009°51'0 0.0
2014-Jul-31 09:31N 44°06' E 009°51'0 0.0
2014-Jul-31 08:31N 44°06' E 009°51'0 0.0
2014-Jul-31 07:31N 44°06' E 009°51'0 0.0
2014-Jul-31 06:31N 44°06' E 009°51'0 0.0
2014-Jul-31 05:31N 44°06' E 009°51'0 0.0
2014-Jul-31 04:31N 44°06' E 009°51'0 0.0
2014-Jul-31 03:31N 44°06' E 009°51'0 0.0
2014-Jul-31 02:31N 44°06' E 009°51'0 0.0
2014-Jul-31 01:31N 44°06' E 009°51'0 0.0
2014-Jul-31 00:31N 44°06' E 009°51'0 0.3
2014-Jul-30 23:33N 44°06' E 009°51'4 4.1
2014-Jul-30 22:33N 44°03' E 009°53'4 4.1
2014-Jul-30 21:34N 44°00' E 009°58'1 0.7
2014-Jul-30 20:34N 43°60' E 009°58'1 0.9
2014-Jul-30 19:33N 44°00' E 009°57'1 0.8
2014-Jul-30 18:33N 44°00' E 009°56'9 9.4
2014-Jul-30 17:33N 43°52' E 009°50'1111.3
2014-Jul-30 16:33N 43°41' E 009°46'1211.8
2014-Jul-30 15:34N 43°30' E 009°42'1312.9
2014-Jul-30 14:33N 43°17' E 009°41'1514.6
2014-Jul-30 13:33N 43°02' E 009°41'3415.0
2014-Jul-30 11:17N 42°38' E 010°14'1215.5
2014-Jul-30 10:32N 42°30' E 010°26'16518.3
2014-Jul-30 01:31N 40°44' E 013°15'1818.7
2014-Jul-30 00:33N 40°41' E 013°38'1918.6
2014-Jul-29 23:34N 40°38' E 014°02'1716.5
2014-Jul-29 22:33N 40°50' E 014°18'1 0.4
2014-Jul-29 20:29N 40°50' E 014°17'0 0.0
2014-Jul-29 19:29N 40°50' E 014°17'0 0.0
2014-Jul-29 18:32N 40°50' E 014°17'0 0.0
2014-Jul-29 17:32N 40°50' E 014°17'0 0.0
2014-Jul-29 16:32N 40°50' E 014°17'0 0.0
2014-Jul-29 15:32N 40°50' E 014°17'0 0.0
2014-Jul-29 14:28N 40°50' E 014°17'0 0.0
2014-Jul-29 13:31N 40°50' E 014°17'0 0.0
2014-Jul-29 11:25N 40°50' E 014°17'0 0.0
2014-Jul-29 03:04N 40°50' E 014°17'1 0.0
2014-Jul-28 06:30N 40°50' E 014°17'8 8.3
2014-Jul-28 05:33N 40°43' E 014°12'9 9.5
2014-Jul-28 04:34N 40°35' E 014°05'10 9.8
2014-Jul-28 03:34N 40°26' E 014°10'15715.3
2014-Jul-27 17:17N 38°03' E 015°36'37817.9
2014-Jul-26 20:11N 35°49' E 022°58'1418.0
2014-Jul-26 19:22N 35°47' E 023°15'1617.8
2014-Jul-26 18:27N 35°46' E 023°35'1820.2
2014-Jul-26 17:33N 35°44' E 023°58'2120.9
2014-Jul-26 16:33N 35°41' E 024°23'2421.0
2014-Jul-26 15:25N 35°37' E 024°52'1720.2
2014-Jul-26 14:33N 35°35' E 025°13'2020.2
2014-Jul-26 13:33N 35°33' E 025°38'  
2014-Jul-24 06:21N 34°48' E 034°14'1821.0
2014-Jul-24 05:29N 34°36' E 033°57'2021.5
2014-Jul-24 04:33N 34°23' E 033°38'2221.4
2014-Jul-24 03:33N 34°10' E 033°18'2121.3
2014-Jul-24 02:33N 33°56' E 032°59'2121.0
2014-Jul-24 01:33N 33°42' E 032°40'2120.9
2014-Jul-24 00:33N 33°29' E 032°20'2421.0
2014-Jul-23 23:24N 33°13' E 031°58'1821.3
2014-Jul-23 22:33N 33°02' E 031°41'2121.5
2014-Jul-23 21:33N 32°48' E 031°22'2221.5
2014-Jul-23 20:33N 32°34' E 031°02'2121.3
2014-Jul-23 19:33N 32°20' E 030°43'2221.5
2014-Jul-23 18:32N 32°06' E 030°23'2121.7
2014-Jul-23 17:33N 31°52' E 030°04'2120.8
2014-Jul-23 16:33N 31°35' E 029°51'2120.8
2014-Jul-23 15:33N 31°14' E 029°47'6 0.8
2014-Jul-23 08:16N 31°09' E 029°48'0 0.0
2014-Jul-23 07:33N 31°09' E 029°48'0 0.0
2014-Jul-23 06:09N 31°09' E 029°48'0 0.0
2014-Jul-23 03:33N 31°09' E 029°48'0 0.0
2014-Jul-23 02:33N 31°09' E 029°48'0 0.0
2014-Jul-22 21:15N 31°09' E 029°48'0 0.0
2014-Jul-22 20:21N 31°09' E 029°48'0 0.0
2014-Jul-22 18:24N 31°09' E 029°48'0 0.0
2014-Jul-22 17:33N 31°09' E 029°48'0 0.0
2014-Jul-22 16:30N 31°09' E 029°48'0 0.0
2014-Jul-22 13:30N 31°09' E 029°48'  

Dump ship's entire track history